createdAt,value
2022-12-04T00:01:13.745Z,97.87
2022-12-04T00:03:40.429Z,97.70
2022-12-04T00:06:12.834Z,97.71
2022-12-04T00:08:39.541Z,97.86
2022-12-04T00:11:07.426Z,98.04
2022-12-04T00:13:34.639Z,98.04
2022-12-04T00:16:01.237Z,98.02
2022-12-04T00:18:27.872Z,97.61
2022-12-04T00:20:54.468Z,97.72
2022-12-04T00:23:20.944Z,97.90
2022-12-04T00:25:48.698Z,97.99
2022-12-04T00:28:19.110Z,97.58
2022-12-04T00:30:45.898Z,97.57
2022-12-04T00:33:13.289Z,97.79
2022-12-04T00:35:39.728Z,97.69
2022-12-04T00:38:06.156Z,97.58
2022-12-04T00:40:32.687Z,98.04
2022-12-04T00:42:59.200Z,97.76
2022-12-04T00:45:25.680Z,97.54
2022-12-04T00:47:52.171Z,97.44
2022-12-04T00:50:18.681Z,97.34
2022-12-04T00:52:45.161Z,97.35
2022-12-04T00:55:11.746Z,96.90
2022-12-04T00:57:38.152Z,97.17
2022-12-04T01:00:06.072Z,97.29
2022-12-04T01:02:32.588Z,97.51
2022-12-04T01:05:02.137Z,97.12
2022-12-04T01:07:28.633Z,97.21
2022-12-04T01:09:55.365Z,96.68
2022-12-04T01:12:21.957Z,96.91
2022-12-04T01:14:48.366Z,96.91
2022-12-04T01:17:14.796Z,96.72
2022-12-04T01:19:41.248Z,96.64
2022-12-04T01:22:07.672Z,96.41
2022-12-04T01:24:34.064Z,96.16
2022-12-04T01:27:00.461Z,96.37
2022-12-04T01:29:26.863Z,96.16
2022-12-04T01:31:53.382Z,95.91
2022-12-04T01:34:19.831Z,96.41
2022-12-04T01:36:46.314Z,96.58
2022-12-04T01:39:12.747Z,96.42
2022-12-04T01:41:39.160Z,96.42
2022-12-04T01:44:06.899Z,96.85
2022-12-04T01:46:33.385Z,96.45
2022-12-04T01:49:00.133Z,96.97
2022-12-04T01:51:29.691Z,97.29
2022-12-04T01:53:58.637Z,97.02
2022-12-04T01:56:35.620Z,96.75
2022-12-04T01:59:03.575Z,96.92
2022-12-04T02:01:34.927Z,97.14
2022-12-04T02:04:02.714Z,97.52
2022-12-04T02:06:29.112Z,97.81
2022-12-04T02:08:55.668Z,97.39
2022-12-04T02:11:37.431Z,97.26
2022-12-04T02:14:15.900Z,97.10
2022-12-04T02:16:51.470Z,97.30
2022-12-04T02:19:49.123Z,97.45
2022-12-04T02:22:37.556Z,97.41
2022-12-04T02:25:29.939Z,97.81
2022-12-04T02:28:15.762Z,97.92
2022-12-04T02:30:42.768Z,98.04
2022-12-04T02:33:19.550Z,98.02
2022-12-04T02:35:50.408Z,97.72
2022-12-04T02:38:29.779Z,98.13
2022-12-04T02:41:14.055Z,97.88
2022-12-04T02:43:43.636Z,97.58
2022-12-04T02:46:25.181Z,98.01
2022-12-04T02:48:53.432Z,97.60
2022-12-04T02:51:21.565Z,97.93
2022-12-04T02:53:52.311Z,97.89
2022-12-04T02:56:28.084Z,97.78
2022-12-04T02:59:01.246Z,97.67
2022-12-04T03:01:31.582Z,97.64
2022-12-04T03:04:21.261Z,97.60
2022-12-04T03:06:51.532Z,97.33
2022-12-04T03:09:22.969Z,97.06
2022-12-04T03:11:56.964Z,97.32
2022-12-04T03:14:33.117Z,96.92
2022-12-04T03:17:05.144Z,96.84
2022-12-04T03:19:45.815Z,97.17
2022-12-04T03:22:15.712Z,96.84
2022-12-04T03:24:51.451Z,97.04
2022-12-04T03:27:42.793Z,97.07
2022-12-04T03:30:12.046Z,96.73
2022-12-04T03:32:46.120Z,96.91
2022-12-04T03:35:22.335Z,97.14
2022-12-04T03:38:02.486Z,96.88
2022-12-04T03:40:36.429Z,96.91
2022-12-04T03:43:05.226Z,97.19
2022-12-04T03:45:52.406Z,97.24
2022-12-04T03:48:26.258Z,96.93
2022-12-04T03:50:57.669Z,97.20
2022-12-04T03:53:31.021Z,97.77
2022-12-04T03:56:06.331Z,97.78
2022-12-04T03:58:34.217Z,97.58
2022-12-04T04:01:04.086Z,97.79
2022-12-04T04:03:35.476Z,97.81
2022-12-04T04:06:06.226Z,97.71
2022-12-04T04:08:35.999Z,97.91
2022-12-04T04:11:14.714Z,98.02
2022-12-04T04:14:04.704Z,97.83
2022-12-04T04:16:52.251Z,98.03
2022-12-04T04:19:38.321Z,98.16
2022-12-04T04:22:26.346Z,98.11
2022-12-04T04:24:58.715Z,98.06
2022-12-04T04:27:25.128Z,98.06
2022-12-04T04:29:52.871Z,98.27
2022-12-04T04:32:25.702Z,98.40
2022-12-04T04:35:23.048Z,97.90
2022-12-04T04:38:28.946Z,97.78
2022-12-04T04:41:34.327Z,97.59
2022-12-04T04:44:15.409Z,97.38
2022-12-04T04:46:47.297Z,97.56
2022-12-04T04:49:14.988Z,97.60
2022-12-04T04:51:42.483Z,97.35
2022-12-04T04:54:10.698Z,97.44
2022-12-04T04:56:41.978Z,97.75
2022-12-04T04:59:08.658Z,97.64
2022-12-04T05:01:35.435Z,98.17
2022-12-04T05:04:04.092Z,97.85
2022-12-04T05:06:30.617Z,97.80
2022-12-04T05:08:57.015Z,97.94
2022-12-04T05:11:23.433Z,97.93
2022-12-04T05:13:49.862Z,97.76
2022-12-04T05:16:16.489Z,98.14
2022-12-04T05:19:02.067Z,97.92
2022-12-04T05:21:28.540Z,98.30
2022-12-04T05:23:54.939Z,97.93
2022-12-04T05:26:21.356Z,97.95
2022-12-04T05:28:47.756Z,97.74
2022-12-04T05:31:14.273Z,97.48
2022-12-04T05:33:40.717Z,98.24
2022-12-04T05:36:09.487Z,98.83
2022-12-04T05:38:36.840Z,98.63
2022-12-04T05:41:04.570Z,99.01
2022-12-04T05:43:31.323Z,98.99
2022-12-04T05:46:08.212Z,99.14
2022-12-04T05:48:35.558Z,99.18
2022-12-04T05:51:06.719Z,99.44
2022-12-04T05:53:33.167Z,99.38
2022-12-04T05:56:01.381Z,99.61
2022-12-04T05:58:28.319Z,99.46
2022-12-04T06:00:55.176Z,99.65
2022-12-04T06:03:21.932Z,99.66
2022-12-04T06:05:48.582Z,99.69
2022-12-04T06:08:15.263Z,99.47
2022-12-04T06:10:41.729Z,99.75
2022-12-04T06:13:08.490Z,99.26
2022-12-04T06:15:39.628Z,99.47
2022-12-04T06:18:06.058Z,99.68
2022-12-04T06:20:33.276Z,99.53
2022-12-04T06:22:59.769Z,99.40
2022-12-04T06:25:26.228Z,99.48
2022-12-04T06:27:52.619Z,99.66
2022-12-04T06:30:19.034Z,99.61
2022-12-04T06:32:45.450Z,99.38
2022-12-04T06:35:11.849Z,99.74
2022-12-04T06:37:38.269Z,99.80
2022-12-04T06:40:05.386Z,99.88
2022-12-04T06:42:31.786Z,99.69
2022-12-04T06:44:58.299Z,100.00
2022-12-04T06:47:24.752Z,100.00
2022-12-04T06:49:51.481Z,100.00
2022-12-04T06:52:17.937Z,100.00
2022-12-04T06:54:44.370Z,99.75
2022-12-04T06:57:10.803Z,100.00
2022-12-04T06:59:37.304Z,100.00
2022-12-04T07:02:03.825Z,100.00
2022-12-04T07:04:30.285Z,100.00
2022-12-04T07:06:56.699Z,100.00
2022-12-04T07:09:23.160Z,100.00
2022-12-04T07:11:49.611Z,100.00
2022-12-04T07:14:16.061Z,100.00
2022-12-04T07:16:43.042Z,100.00
2022-12-04T07:19:10.811Z,100.00
2022-12-04T07:21:37.275Z,100.00
2022-12-04T07:24:04.081Z,100.00
2022-12-04T07:26:30.839Z,100.00
2022-12-04T07:28:58.054Z,100.00
2022-12-04T07:31:25.866Z,100.00
2022-12-04T07:33:53.890Z,100.00
2022-12-04T07:36:21.379Z,100.00
2022-12-04T07:38:48.052Z,100.00
2022-12-04T07:41:14.655Z,100.00
2022-12-04T07:43:41.615Z,100.00
2022-12-04T07:46:11.489Z,100.00
2022-12-04T07:48:38.018Z,100.00
2022-12-04T07:51:10.017Z,100.00
2022-12-04T07:53:36.765Z,100.00
2022-12-04T07:56:05.215Z,100.00
2022-12-04T07:58:32.221Z,100.00
2022-12-04T08:01:25.082Z,100.00
2022-12-04T08:03:54.775Z,100.00
2022-12-04T08:06:22.756Z,100.00
2022-12-04T08:08:49.850Z,100.00
2022-12-04T08:11:18.913Z,100.00
2022-12-04T08:13:45.773Z,100.00
2022-12-04T08:16:12.927Z,100.00
2022-12-04T08:18:40.331Z,100.00
2022-12-04T08:21:12.660Z,100.00
2022-12-04T08:23:40.370Z,100.00
2022-12-04T08:26:07.180Z,100.00
2022-12-04T08:28:33.740Z,100.00
2022-12-04T08:31:08.182Z,100.00
2022-12-04T08:33:34.663Z,100.00
2022-12-04T08:36:01.458Z,100.00
2022-12-04T08:38:27.938Z,100.00
2022-12-04T08:40:54.357Z,100.00
2022-12-04T08:43:20.760Z,100.00
2022-12-04T08:45:55.864Z,100.00
2022-12-04T08:48:22.325Z,100.00
2022-12-04T08:50:48.728Z,100.00
2022-12-04T08:53:15.141Z,100.00
2022-12-04T08:55:41.700Z,100.00
2022-12-04T08:58:08.163Z,100.00
2022-12-04T09:00:34.643Z,100.00
2022-12-04T09:03:01.040Z,100.00
2022-12-04T09:05:27.618Z,100.00
2022-12-04T09:07:54.083Z,100.00
2022-12-04T09:10:20.538Z,100.00
2022-12-04T09:12:46.951Z,100.00
2022-12-04T09:15:13.377Z,100.00
2022-12-04T09:17:39.798Z,100.00
2022-12-04T09:20:08.084Z,100.00
2022-12-04T09:23:01.796Z,100.00
2022-12-04T09:25:22.059Z,100.00
2022-12-04T09:27:48.479Z,100.00
2022-12-04T09:30:14.952Z,100.00
2022-12-04T09:32:41.404Z,100.00
2022-12-04T09:35:08.324Z,100.00
2022-12-04T09:37:36.596Z,100.00
2022-12-04T09:40:07.426Z,100.00
2022-12-04T09:42:46.586Z,100.00
2022-12-04T09:45:19.032Z,100.00
2022-12-04T09:47:48.894Z,100.00
2022-12-04T09:50:38.933Z,100.00
2022-12-04T09:53:20.929Z,100.00
2022-12-04T09:55:56.472Z,100.00
2022-12-04T09:58:25.935Z,100.00
2022-12-04T10:00:53.004Z,100.00
2022-12-04T10:03:21.997Z,100.00
2022-12-04T10:06:06.733Z,100.00
2022-12-04T10:08:39.016Z,100.00
2022-12-04T10:11:37.722Z,100.00
2022-12-04T10:14:41.454Z,100.00
2022-12-04T10:17:17.750Z,100.00
2022-12-04T10:20:11.315Z,100.00
2022-12-04T10:22:58.463Z,100.00
2022-12-04T10:25:25.757Z,100.00
2022-12-04T10:28:00.127Z,100.00
2022-12-04T10:30:29.036Z,100.00
2022-12-04T10:33:00.052Z,100.00
2022-12-04T10:35:31.240Z,100.00
2022-12-04T10:38:02.633Z,100.00
2022-12-04T10:40:44.209Z,100.00
2022-12-04T10:43:29.465Z,100.00
2022-12-04T10:45:55.904Z,100.00
2022-12-04T10:48:34.863Z,100.00
2022-12-04T10:51:01.286Z,100.00
2022-12-04T10:53:36.109Z,100.00
2022-12-04T10:56:13.883Z,100.00
2022-12-04T10:58:40.408Z,100.00
2022-12-04T11:01:09.318Z,100.00
2022-12-04T11:03:35.922Z,99.96
2022-12-04T11:06:05.645Z,99.92
2022-12-04T11:08:43.007Z,99.90
2022-12-04T11:11:15.159Z,99.57
2022-12-04T11:13:42.273Z,99.84
2022-12-04T11:16:09.233Z,100.00
2022-12-04T11:18:47.470Z,99.99
2022-12-04T11:21:26.212Z,100.00
2022-12-04T11:23:52.990Z,100.00
2022-12-04T11:26:31.642Z,99.50
2022-12-04T11:28:58.884Z,99.74
2022-12-04T11:31:25.645Z,99.64
2022-12-04T11:33:58.746Z,100.00
2022-12-04T11:36:29.068Z,99.84
2022-12-04T11:39:05.902Z,100.00
2022-12-04T11:41:33.165Z,100.00
2022-12-04T11:44:00.729Z,100.00
2022-12-04T11:46:32.368Z,99.96
2022-12-04T11:48:59.133Z,100.00
2022-12-04T11:51:37.687Z,99.75
2022-12-04T11:54:17.140Z,100.00
2022-12-04T11:56:47.510Z,100.00
2022-12-04T11:59:43.631Z,100.00
2022-12-04T12:02:25.237Z,100.00
2022-12-04T12:05:31.566Z,100.00
2022-12-04T12:08:10.158Z,100.00
2022-12-04T12:10:58.431Z,100.00
2022-12-04T12:13:41.644Z,100.00
2022-12-04T12:16:40.442Z,100.00
2022-12-04T12:19:22.018Z,100.00
2022-12-04T12:21:58.004Z,100.00
2022-12-04T12:24:51.621Z,100.00
2022-12-04T12:27:56.171Z,100.00
2022-12-04T12:30:24.087Z,100.00
2022-12-04T12:33:10.980Z,100.00
2022-12-04T12:35:56.189Z,100.00
2022-12-04T12:38:52.978Z,100.00
2022-12-04T12:41:23.839Z,100.00
2022-12-04T12:44:24.289Z,100.00
2022-12-04T12:46:58.228Z,100.00
2022-12-04T12:50:20.371Z,100.00
2022-12-04T12:52:59.962Z,100.00
2022-12-04T12:55:28.937Z,100.00
2022-12-04T12:58:01.226Z,100.00
2022-12-04T13:00:29.207Z,100.00
2022-12-04T13:03:00.631Z,100.00
2022-12-04T13:05:31.853Z,100.00
2022-12-04T13:08:24.473Z,100.00
2022-12-04T13:11:05.859Z,100.00
2022-12-04T13:14:03.574Z,100.00
2022-12-04T13:16:37.269Z,100.00
2022-12-04T13:19:08.022Z,100.00
2022-12-04T13:21:46.189Z,100.00
2022-12-04T13:24:28.345Z,100.00
2022-12-04T13:27:21.048Z,100.00
2022-12-04T13:29:56.776Z,100.00
2022-12-04T13:32:33.652Z,100.00
2022-12-04T13:35:21.915Z,100.00
2022-12-04T13:38:24.361Z,100.00
2022-12-04T13:40:56.865Z,100.00
2022-12-04T13:43:36.234Z,100.00
2022-12-04T13:46:08.263Z,100.00
2022-12-04T13:48:40.287Z,100.00
2022-12-04T13:51:15.901Z,100.00
2022-12-04T13:53:44.109Z,100.00
2022-12-04T13:56:28.350Z,100.00
2022-12-04T13:59:03.631Z,100.00
2022-12-04T14:01:41.720Z,100.00
2022-12-04T14:04:08.418Z,100.00
2022-12-04T14:06:39.504Z,100.00
2022-12-04T14:09:08.831Z,100.00
2022-12-04T14:11:46.781Z,100.00
2022-12-04T14:14:26.164Z,100.00
2022-12-04T14:16:53.103Z,100.00
2022-12-04T14:19:37.252Z,100.00
2022-12-04T14:22:04.257Z,100.00
2022-12-04T14:24:38.634Z,100.00
2022-12-04T14:27:29.884Z,100.00
2022-12-04T14:29:57.344Z,100.00
2022-12-04T14:32:26.887Z,100.00
2022-12-04T14:34:54.245Z,100.00
2022-12-04T14:37:31.037Z,100.00
2022-12-04T14:39:58.668Z,100.00
2022-12-04T14:42:26.598Z,100.00
2022-12-04T14:44:58.733Z,100.00
2022-12-04T14:47:28.494Z,100.00
2022-12-04T14:49:54.789Z,100.00
2022-12-04T14:52:29.466Z,100.00
2022-12-04T14:55:07.387Z,100.00
2022-12-04T14:58:31.856Z,100.00
2022-12-04T15:01:07.244Z,100.00
2022-12-04T15:03:43.107Z,100.00
2022-12-04T15:06:35.722Z,100.00
2022-12-04T15:09:22.789Z,100.00
2022-12-04T15:12:13.445Z,100.00
2022-12-04T15:14:40.951Z,100.00
2022-12-04T15:17:11.081Z,100.00
2022-12-04T15:19:38.477Z,100.00
2022-12-04T15:22:11.507Z,100.00
2022-12-04T15:24:38.638Z,100.00
2022-12-04T15:27:06.615Z,100.00
2022-12-04T15:29:34.989Z,100.00
2022-12-04T15:32:05.791Z,100.00
2022-12-04T15:34:42.714Z,100.00
2022-12-04T15:37:18.670Z,100.00
2022-12-04T15:39:45.245Z,100.00
2022-12-04T15:42:25.548Z,100.00
2022-12-04T15:45:01.617Z,100.00
2022-12-04T15:47:36.617Z,100.00
2022-12-04T15:50:08.975Z,100.00
2022-12-04T15:52:36.481Z,100.00
2022-12-04T15:55:08.641Z,100.00
2022-12-04T15:57:42.711Z,100.00
2022-12-04T16:00:21.295Z,100.00
2022-12-04T16:02:48.638Z,100.00
2022-12-04T16:05:21.200Z,100.00
2022-12-04T16:07:59.109Z,100.00
2022-12-04T16:10:29.459Z,100.00
2022-12-04T16:12:58.194Z,100.00
2022-12-04T16:15:25.799Z,100.00
2022-12-04T16:17:52.662Z,100.00
2022-12-04T16:20:19.818Z,100.00
2022-12-04T16:22:54.070Z,100.00
2022-12-04T16:25:20.516Z,100.00
2022-12-04T16:27:46.919Z,100.00
2022-12-04T16:30:14.041Z,100.00
2022-12-04T16:32:40.688Z,100.00
2022-12-04T16:35:07.442Z,100.00
2022-12-04T16:37:33.926Z,100.00
2022-12-04T16:40:01.278Z,100.00
2022-12-04T16:42:29.442Z,100.00
2022-12-04T16:44:56.465Z,100.00
2022-12-04T16:47:23.108Z,100.00
2022-12-04T16:49:50.842Z,100.00
2022-12-04T16:52:17.882Z,100.00
2022-12-04T16:54:44.392Z,100.00
2022-12-04T16:57:10.857Z,100.00
2022-12-04T16:59:37.845Z,100.00
2022-12-04T17:02:06.936Z,100.00
2022-12-04T17:04:33.443Z,100.00
2022-12-04T17:06:59.918Z,100.00
2022-12-04T17:09:26.353Z,100.00
2022-12-04T17:11:52.773Z,100.00
2022-12-04T17:14:19.221Z,100.00
2022-12-04T17:16:47.191Z,100.00
2022-12-04T17:19:13.815Z,100.00
2022-12-04T17:21:41.556Z,100.00
2022-12-04T17:24:08.220Z,100.00
2022-12-04T17:26:34.725Z,100.00
2022-12-04T17:29:01.130Z,100.00
2022-12-04T17:31:27.760Z,100.00
2022-12-04T17:33:54.246Z,100.00
2022-12-04T17:36:22.608Z,100.00
2022-12-04T17:38:53.254Z,100.00
2022-12-04T17:41:19.661Z,100.00
2022-12-04T17:43:46.850Z,100.00
2022-12-04T17:46:16.341Z,100.00
2022-12-04T17:48:43.250Z,100.00
2022-12-04T17:51:15.829Z,100.00
2022-12-04T17:53:42.280Z,100.00
2022-12-04T17:56:14.621Z,100.00
2022-12-04T17:58:41.017Z,100.00
2022-12-04T18:01:13.136Z,100.00
2022-12-04T18:03:40.167Z,100.00
2022-12-04T18:06:24.379Z,100.00
2022-12-04T18:08:51.228Z,100.00
2022-12-04T18:11:20.469Z,100.00
2022-12-04T18:13:55.181Z,100.00
2022-12-04T18:16:22.067Z,100.00
2022-12-04T18:18:48.589Z,100.00
2022-12-04T18:21:15.304Z,100.00
2022-12-04T18:23:45.508Z,100.00
2022-12-04T18:26:13.904Z,100.00
2022-12-04T18:28:40.497Z,100.00
2022-12-04T18:31:08.071Z,100.00
2022-12-04T18:33:36.334Z,100.00
2022-12-04T18:36:03.868Z,100.00
2022-12-04T18:38:30.964Z,100.00
2022-12-04T18:41:08.610Z,100.00
2022-12-04T18:43:36.159Z,100.00
2022-12-04T18:46:07.625Z,100.00
2022-12-04T18:48:34.982Z,100.00
2022-12-04T18:51:01.449Z,100.00
2022-12-04T18:53:27.952Z,100.00
2022-12-04T18:55:54.598Z,100.00
2022-12-04T18:58:22.613Z,100.00
2022-12-04T19:00:49.311Z,100.00
2022-12-04T19:03:15.797Z,100.00
2022-12-04T19:05:48.317Z,100.00
2022-12-04T19:08:14.830Z,100.00
2022-12-04T19:10:41.287Z,100.00
2022-12-04T19:13:08.809Z,100.00
2022-12-04T19:15:37.113Z,100.00
2022-12-04T19:18:03.563Z,100.00
2022-12-04T19:20:29.969Z,100.00
2022-12-04T19:22:56.387Z,100.00
2022-12-04T19:25:22.814Z,100.00
2022-12-04T19:27:49.255Z,100.00
2022-12-04T19:30:15.708Z,100.00
2022-12-04T19:32:42.107Z,100.00
2022-12-04T19:35:08.797Z,100.00
2022-12-04T19:37:39.722Z,100.00
2022-12-04T19:40:08.715Z,100.00
2022-12-04T19:42:35.123Z,100.00
2022-12-04T19:45:01.542Z,100.00
2022-12-04T19:47:27.988Z,100.00
2022-12-04T19:49:54.732Z,100.00
2022-12-04T19:52:21.422Z,100.00
2022-12-04T19:54:48.147Z,100.00
2022-12-04T19:57:14.839Z,100.00
2022-12-04T19:59:45.958Z,100.00
2022-12-04T20:02:13.972Z,100.00
2022-12-04T20:04:40.687Z,100.00
2022-12-04T20:07:07.168Z,100.00
2022-12-04T20:09:33.605Z,100.00
2022-12-04T20:12:00.032Z,100.00
2022-12-04T20:14:26.472Z,100.00
2022-12-04T20:16:53.382Z,100.00
2022-12-04T20:19:19.892Z,100.00
2022-12-04T20:21:46.970Z,100.00
2022-12-04T20:24:15.396Z,100.00
2022-12-04T20:26:43.784Z,100.00
2022-12-04T20:29:13.101Z,100.00
2022-12-04T20:31:42.144Z,100.00
2022-12-04T20:34:11.708Z,100.00
2022-12-04T20:36:41.004Z,100.00
2022-12-04T20:39:08.242Z,100.00
2022-12-04T20:41:35.033Z,100.00
2022-12-04T20:44:02.984Z,100.00
2022-12-04T20:46:35.053Z,100.00
2022-12-04T20:49:03.123Z,100.00
2022-12-04T20:51:35.715Z,100.00
2022-12-04T20:54:02.658Z,100.00
2022-12-04T20:56:31.088Z,100.00
2022-12-04T20:58:58.467Z,100.00
2022-12-04T21:01:25.173Z,100.00
2022-12-04T21:03:52.266Z,100.00
2022-12-04T21:06:24.982Z,100.00
2022-12-04T21:08:53.148Z,100.00
2022-12-04T21:11:26.708Z,100.00
2022-12-04T21:14:13.901Z,100.00
2022-12-04T21:16:42.323Z,100.00
2022-12-04T21:19:10.994Z,100.00
2022-12-04T21:21:37.819Z,100.00
2022-12-04T21:24:05.428Z,100.00
2022-12-04T21:26:31.860Z,100.00
2022-12-04T21:28:58.612Z,100.00
2022-12-04T21:31:27.982Z,100.00
2022-12-04T21:34:05.290Z,100.00
2022-12-04T21:36:31.932Z,100.00
2022-12-04T21:38:58.372Z,100.00
2022-12-04T21:41:43.432Z,100.00
2022-12-04T21:44:16.297Z,100.00
2022-12-04T21:46:43.749Z,100.00
2022-12-04T21:49:10.739Z,100.00
2022-12-04T21:51:56.699Z,100.00
2022-12-04T21:54:23.749Z,100.00
2022-12-04T21:56:50.286Z,100.00
2022-12-04T21:59:16.768Z,100.00
2022-12-04T22:01:43.283Z,100.00
2022-12-04T22:04:09.782Z,100.00
2022-12-04T22:06:37.807Z,100.00
2022-12-04T22:09:07.090Z,100.00
2022-12-04T22:11:33.816Z,100.00
2022-12-04T22:14:00.323Z,100.00
2022-12-04T22:16:30.375Z,100.00
2022-12-04T22:18:57.993Z,100.00
2022-12-04T22:21:25.150Z,100.00
2022-12-04T22:23:58.726Z,100.00
2022-12-04T22:26:25.959Z,100.00
2022-12-04T22:28:52.613Z,100.00
2022-12-04T22:31:21.508Z,100.00
2022-12-04T22:33:50.521Z,100.00
2022-12-04T22:36:23.944Z,100.00
2022-12-04T22:39:09.752Z,100.00
2022-12-04T22:41:36.878Z,100.00
2022-12-04T22:44:03.342Z,100.00
2022-12-04T22:46:29.861Z,100.00
2022-12-04T22:48:56.320Z,100.00
2022-12-04T22:51:23.009Z,100.00
2022-12-04T22:53:52.559Z,100.00
2022-12-04T22:56:24.174Z,100.00
2022-12-04T22:58:51.442Z,100.00
2022-12-04T23:01:23.502Z,100.00
2022-12-04T23:03:50.414Z,100.00
2022-12-04T23:06:18.553Z,100.00
2022-12-04T23:08:45.509Z,100.00
2022-12-04T23:11:14.600Z,100.00
2022-12-04T23:13:41.418Z,100.00
2022-12-04T23:16:10.093Z,100.00
2022-12-04T23:18:37.548Z,100.00
2022-12-04T23:21:09.494Z,100.00
2022-12-04T23:23:37.420Z,100.00
2022-12-04T23:26:15.732Z,100.00
2022-12-04T23:28:42.678Z,100.00
2022-12-04T23:31:10.770Z,100.00
2022-12-04T23:33:37.389Z,100.00
2022-12-04T23:36:05.346Z,100.00
2022-12-04T23:38:31.792Z,100.00
2022-12-04T23:41:11.161Z,100.00
2022-12-04T23:43:37.818Z,100.00
2022-12-04T23:46:10.718Z,100.00
2022-12-04T23:48:38.898Z,100.00
2022-12-04T23:51:05.399Z,100.00
2022-12-04T23:53:31.787Z,100.00
2022-12-04T23:56:00.472Z,100.00
2022-12-04T23:58:26.981Z,100.00
